createdAt,value
2022-10-05T00:00:53.449Z,5.33
2022-10-05T00:03:37.364Z,5.32
2022-10-05T00:06:06.455Z,5.32
2022-10-05T00:08:36.178Z,5.31
2022-10-05T00:11:08.038Z,5.29
2022-10-05T00:13:36.366Z,5.27
2022-10-05T00:16:10.568Z,5.27
2022-10-05T00:18:39.797Z,5.26
2022-10-05T00:21:20.880Z,5.25
2022-10-05T00:23:49.894Z,5.24
2022-10-05T00:26:27.335Z,5.23
2022-10-05T00:28:55.793Z,5.21
2022-10-05T00:31:31.043Z,5.19
2022-10-05T00:33:59.442Z,5.17
2022-10-05T00:36:27.774Z,5.15
2022-10-05T00:38:56.021Z,5.14
2022-10-05T00:41:50.398Z,5.13
2022-10-05T00:44:42.194Z,5.12
2022-10-05T00:47:27.835Z,5.11
2022-10-05T00:50:07.171Z,5.09
2022-10-05T00:53:00.505Z,5.10
2022-10-05T00:55:44.283Z,5.10
2022-10-05T00:58:24.801Z,5.10
2022-10-05T01:01:15.366Z,5.08
2022-10-05T01:03:59.054Z,5.08
2022-10-05T01:06:50.274Z,5.07
2022-10-05T01:09:48.057Z,5.09
2022-10-05T01:12:49.890Z,5.11
2022-10-05T01:15:51.783Z,5.10
2022-10-05T01:18:45.291Z,5.10
2022-10-05T01:21:17.938Z,5.11
2022-10-05T01:24:10.538Z,5.10
2022-10-05T01:26:51.013Z,5.10
2022-10-05T01:29:26.768Z,5.09
2022-10-05T01:32:19.133Z,5.10
2022-10-05T01:34:56.358Z,5.12
2022-10-05T01:37:39.852Z,5.14
2022-10-05T01:40:14.107Z,5.19
2022-10-05T01:43:14.626Z,5.22
2022-10-05T01:46:07.395Z,5.23
2022-10-05T01:48:40.319Z,5.25
2022-10-05T01:51:27.456Z,5.27
2022-10-05T01:54:09.729Z,5.31
2022-10-05T01:57:01.969Z,5.34
2022-10-05T02:00:05.699Z,5.38
2022-10-05T02:03:02.619Z,5.44
2022-10-05T02:05:58.334Z,5.47
2022-10-05T02:08:39.349Z,5.51
2022-10-05T02:11:12.325Z,5.52
2022-10-05T02:13:56.370Z,5.50
2022-10-05T02:16:45.067Z,5.49
2022-10-05T02:19:21.864Z,5.48
2022-10-05T02:21:58.865Z,5.47
2022-10-05T02:24:36.287Z,5.46
2022-10-05T02:27:07.873Z,5.44
2022-10-05T02:29:41.820Z,5.41
2022-10-05T02:32:20.618Z,5.38
2022-10-05T02:34:48.839Z,5.36
2022-10-05T02:37:50.745Z,5.34
2022-10-05T02:40:23.275Z,5.32
2022-10-05T02:43:23.937Z,5.31
2022-10-05T02:46:17.735Z,5.28
2022-10-05T02:49:14.254Z,5.27
2022-10-05T02:52:11.299Z,5.28
2022-10-05T02:54:49.797Z,5.28
2022-10-05T02:57:26.965Z,5.30
2022-10-05T03:00:07.953Z,5.29
2022-10-05T03:02:52.875Z,5.29
2022-10-05T03:05:26.686Z,5.32
2022-10-05T03:08:21.182Z,5.35
2022-10-05T03:11:13.513Z,5.37
2022-10-05T03:14:00.886Z,5.37
2022-10-05T03:16:48.261Z,5.37
2022-10-05T03:19:54.503Z,5.39
2022-10-05T03:22:47.240Z,5.39
2022-10-05T03:26:07.198Z,5.38
2022-10-05T03:28:53.301Z,5.34
2022-10-05T03:31:21.434Z,5.29
2022-10-05T03:34:14.735Z,5.27
2022-10-05T03:37:02.742Z,5.24
2022-10-05T03:39:37.300Z,5.22
2022-10-05T03:42:34.831Z,5.22
2022-10-05T03:45:28.322Z,5.23
2022-10-05T03:48:11.807Z,5.23
2022-10-05T03:50:59.053Z,5.21
2022-10-05T03:53:33.880Z,5.20
2022-10-05T03:56:07.591Z,5.19
2022-10-05T03:58:56.405Z,5.20
2022-10-05T04:01:57.014Z,5.17
2022-10-05T04:04:51.350Z,5.16
2022-10-05T04:07:43.768Z,5.16
2022-10-05T04:10:26.598Z,5.15
2022-10-05T04:13:05.175Z,5.12
2022-10-05T04:15:40.396Z,5.10
2022-10-05T04:18:36.707Z,5.08
2022-10-05T04:21:26.664Z,5.05
2022-10-05T04:24:09.724Z,5.03
2022-10-05T04:26:42.271Z,5.00
2022-10-05T04:29:41.492Z,4.98
2022-10-05T04:32:15.845Z,4.96
2022-10-05T04:34:59.777Z,4.93
2022-10-05T04:37:50.445Z,4.91
2022-10-05T04:40:47.277Z,4.91
2022-10-05T04:43:35.323Z,4.94
2022-10-05T04:46:31.741Z,4.97
2022-10-05T04:49:19.751Z,5.01
2022-10-05T04:52:10.078Z,5.08
2022-10-05T04:54:45.989Z,5.12
2022-10-05T04:57:25.686Z,5.14
2022-10-05T05:00:25.783Z,5.12
2022-10-05T05:03:25.049Z,5.10
2022-10-05T05:06:19.183Z,5.11
2022-10-05T05:09:00.250Z,5.12
2022-10-05T05:11:28.589Z,5.11
2022-10-05T05:14:26.916Z,5.11
2022-10-05T05:17:21.429Z,5.13
2022-10-05T05:20:09.980Z,5.14
2022-10-05T05:22:51.723Z,5.17
2022-10-05T05:25:45.235Z,5.21
2022-10-05T05:28:29.452Z,5.27
2022-10-05T05:31:20.359Z,5.35
2022-10-05T05:34:10.252Z,5.43
2022-10-05T05:36:56.989Z,5.54
2022-10-05T05:39:34.979Z,5.63
2022-10-05T05:42:21.702Z,5.72
2022-10-05T05:44:54.236Z,5.82
2022-10-05T05:47:35.624Z,5.92
2022-10-05T05:50:25.722Z,6.03
2022-10-05T05:53:01.694Z,6.17
2022-10-05T05:55:40.487Z,6.30
2022-10-05T05:58:35.435Z,6.42
2022-10-05T06:01:06.686Z,6.54
2022-10-05T06:03:41.562Z,6.63
2022-10-05T06:06:16.098Z,6.71
2022-10-05T06:08:57.878Z,6.78
2022-10-05T06:11:45.599Z,6.88
2022-10-05T06:14:38.597Z,6.98
2022-10-05T06:17:15.361Z,7.11
2022-10-05T06:19:46.542Z,7.25
2022-10-05T06:22:38.294Z,7.42
2022-10-05T06:25:33.284Z,7.64
2022-10-05T06:28:12.554Z,7.84
2022-10-05T06:31:09.959Z,8.00
2022-10-05T06:34:04.302Z,8.15
2022-10-05T06:36:43.449Z,8.28
2022-10-05T06:39:33.655Z,8.41
2022-10-05T06:42:30.513Z,8.57
2022-10-05T06:46:01.703Z,8.75
2022-10-05T06:49:13.782Z,8.89
2022-10-05T06:52:42.355Z,9.05
2022-10-05T06:55:40.720Z,9.12
2022-10-05T06:58:38.897Z,9.20
2022-10-05T07:01:42.952Z,9.28
2022-10-05T07:04:39.034Z,9.34
2022-10-05T07:07:40.581Z,9.37
2022-10-05T07:11:00.678Z,9.42
2022-10-05T07:13:49.589Z,9.52
2022-10-05T07:16:45.502Z,9.60
2022-10-05T07:19:22.758Z,9.68
2022-10-05T07:22:16.075Z,9.79
2022-10-05T07:25:06.200Z,9.92
2022-10-05T07:27:41.540Z,10.02
2022-10-05T07:30:14.060Z,10.17
2022-10-05T07:33:41.438Z,10.35
2022-10-05T07:36:45.026Z,10.63
2022-10-05T07:39:55.363Z,10.93
2022-10-05T07:42:50.497Z,11.22
2022-10-05T07:45:51.740Z,11.49
2022-10-05T07:48:35.621Z,11.79
2022-10-05T07:51:23.878Z,12.02
2022-10-05T07:54:15.974Z,12.16
2022-10-05T07:56:50.959Z,12.26
2022-10-05T07:59:47.932Z,12.40
2022-10-05T08:02:39.232Z,12.55
2022-10-05T08:05:16.037Z,12.64
2022-10-05T08:07:52.486Z,12.74
2022-10-05T08:10:44.837Z,12.82
2022-10-05T08:13:38.154Z,12.90
2022-10-05T08:16:12.958Z,13.00
2022-10-05T08:18:41.427Z,13.12
2022-10-05T08:21:12.258Z,13.28
2022-10-05T08:23:58.567Z,13.43
2022-10-05T08:26:48.748Z,13.57
2022-10-05T08:29:23.558Z,13.73
2022-10-05T08:32:01.676Z,13.85
2022-10-05T08:35:07.123Z,13.92
2022-10-05T08:37:41.818Z,14.04
2022-10-05T08:40:19.312Z,14.25
2022-10-05T08:43:05.841Z,14.52
2022-10-05T08:45:39.720Z,14.80
2022-10-05T08:48:38.161Z,15.01
2022-10-05T08:51:09.105Z,15.26
2022-10-05T08:54:13.606Z,15.46
2022-10-05T08:57:23.327Z,15.64
2022-10-05T09:00:09.036Z,15.93
2022-10-05T09:02:56.820Z,16.23
2022-10-05T09:05:46.667Z,16.48
2022-10-05T09:08:36.668Z,16.70
2022-10-05T09:11:33.402Z,16.85
2022-10-05T09:14:07.741Z,16.98
2022-10-05T09:16:44.494Z,16.98
2022-10-05T09:19:37.249Z,16.98
2022-10-05T09:22:26.705Z,17.01
2022-10-05T09:25:03.966Z,17.01
2022-10-05T09:27:43.049Z,16.92
2022-10-05T09:30:35.043Z,16.88
2022-10-05T09:33:34.468Z,16.88
2022-10-05T09:36:09.482Z,16.95
2022-10-05T09:38:43.809Z,17.03
2022-10-05T09:41:18.366Z,17.06
2022-10-05T09:44:06.999Z,17.10
2022-10-05T09:47:12.343Z,17.13
2022-10-05T09:50:08.026Z,17.18
2022-10-05T09:52:58.118Z,17.29
2022-10-05T09:56:01.431Z,17.38
2022-10-05T09:59:11.619Z,17.33
2022-10-05T10:02:18.089Z,17.33
2022-10-05T10:05:02.111Z,17.34
2022-10-05T10:07:48.805Z,17.28
2022-10-05T10:10:45.029Z,17.28
2022-10-05T10:13:25.453Z,17.29
2022-10-05T10:16:06.970Z,17.29
2022-10-05T10:18:35.206Z,17.29
2022-10-05T10:21:29.854Z,17.33
2022-10-05T10:24:22.954Z,17.36
2022-10-05T10:27:10.249Z,17.37
2022-10-05T10:29:55.834Z,17.36
2022-10-05T10:32:42.776Z,17.39
2022-10-05T10:35:19.750Z,17.53
2022-10-05T10:38:00.098Z,17.75
2022-10-05T10:41:06.516Z,17.90
2022-10-05T10:43:53.455Z,18.04
2022-10-05T10:47:03.335Z,18.12
2022-10-05T10:49:45.650Z,18.23
2022-10-05T10:52:56.194Z,18.37
2022-10-05T10:55:40.433Z,18.43
2022-10-05T10:58:41.148Z,18.41
2022-10-05T11:01:32.176Z,18.46
2022-10-05T11:04:57.554Z,18.55
2022-10-05T11:07:34.697Z,18.62
2022-10-05T11:11:01.605Z,18.68
2022-10-05T11:13:52.929Z,18.76
2022-10-05T11:16:39.030Z,18.82
2022-10-05T11:20:03.569Z,18.79
2022-10-05T11:22:50.260Z,18.80
2022-10-05T11:25:21.056Z,18.86
2022-10-05T11:28:15.792Z,18.92
2022-10-05T11:31:26.124Z,19.09
2022-10-05T11:34:21.129Z,19.36
2022-10-05T11:37:11.077Z,19.47
2022-10-05T11:39:49.641Z,19.63
2022-10-05T11:42:17.777Z,19.76
2022-10-05T11:45:06.460Z,19.87
2022-10-05T11:47:52.246Z,20.01
2022-10-05T11:50:38.839Z,20.16
2022-10-05T11:53:39.045Z,20.37
2022-10-05T11:56:25.872Z,20.47
2022-10-05T11:59:23.532Z,20.60
2022-10-05T12:02:06.238Z,20.78
2022-10-05T12:04:45.664Z,20.92
2022-10-05T12:07:22.777Z,20.92
2022-10-05T12:10:16.752Z,20.90
2022-10-05T12:13:23.921Z,21.01
2022-10-05T12:16:00.202Z,21.12
2022-10-05T12:18:39.435Z,21.17
2022-10-05T12:21:44.692Z,21.17
2022-10-05T12:24:15.826Z,21.16
2022-10-05T12:26:51.494Z,21.13
2022-10-05T12:29:28.289Z,21.09
2022-10-05T12:32:04.820Z,21.05
2022-10-05T12:34:45.472Z,21.06
2022-10-05T12:37:42.825Z,21.01
2022-10-05T12:40:43.389Z,20.91
2022-10-05T12:43:37.882Z,20.88
2022-10-05T12:46:17.957Z,20.85
2022-10-05T12:49:24.004Z,20.80
2022-10-05T12:52:04.622Z,20.77
2022-10-05T12:54:58.637Z,20.73
2022-10-05T12:57:30.173Z,20.66
2022-10-05T13:00:08.683Z,20.60
2022-10-05T13:02:44.548Z,20.53
2022-10-05T13:05:48.826Z,20.49
2022-10-05T13:08:35.393Z,20.45
2022-10-05T13:11:36.439Z,20.45
2022-10-05T13:14:07.652Z,20.49
2022-10-05T13:16:56.186Z,20.53
2022-10-05T13:19:44.741Z,20.54
2022-10-05T13:22:25.881Z,20.56
2022-10-05T13:25:14.424Z,20.58
2022-10-05T13:27:49.415Z,20.59
2022-10-05T13:30:20.989Z,20.60
2022-10-05T13:33:15.339Z,20.62
2022-10-05T13:36:32.776Z,20.64
2022-10-05T13:39:15.901Z,20.61
2022-10-05T13:42:05.274Z,20.56
2022-10-05T13:44:51.615Z,20.51
2022-10-05T13:47:39.112Z,20.42
2022-10-05T13:50:16.521Z,20.30
2022-10-05T13:52:44.722Z,20.22
2022-10-05T13:55:55.534Z,20.13
2022-10-05T13:58:43.170Z,20.06
2022-10-05T14:01:29.580Z,19.98
2022-10-05T14:04:19.452Z,19.90
2022-10-05T14:06:49.494Z,19.79
2022-10-05T14:09:20.703Z,19.71
2022-10-05T14:12:04.354Z,19.65
2022-10-05T14:14:43.902Z,19.57
2022-10-05T14:17:32.177Z,19.52
2022-10-05T14:20:17.533Z,19.44
2022-10-05T14:22:52.943Z,19.36
2022-10-05T14:25:21.620Z,19.26
2022-10-05T14:27:59.167Z,19.17
2022-10-05T14:30:31.207Z,19.08
2022-10-05T14:33:05.320Z,18.99
2022-10-05T14:35:50.403Z,18.91
2022-10-05T14:38:26.627Z,18.82
2022-10-05T14:41:21.487Z,18.74
2022-10-05T14:44:02.303Z,18.62
2022-10-05T14:46:32.959Z,18.51
2022-10-05T14:49:37.568Z,18.44
2022-10-05T14:52:32.962Z,18.34
2022-10-05T14:55:41.687Z,18.22
2022-10-05T14:58:24.114Z,18.09
2022-10-05T15:01:24.394Z,17.97
2022-10-05T15:03:52.618Z,17.85
2022-10-05T15:06:43.646Z,17.73
2022-10-05T15:09:19.278Z,17.63
2022-10-05T15:11:52.655Z,17.54
2022-10-05T15:14:30.061Z,17.45
2022-10-05T15:17:03.578Z,17.33
2022-10-05T15:19:34.711Z,17.21
2022-10-05T15:22:14.422Z,17.13
2022-10-05T15:24:45.797Z,17.06
2022-10-05T15:27:36.729Z,17.00
2022-10-05T15:30:09.905Z,16.90
2022-10-05T15:33:04.571Z,16.84
2022-10-05T15:36:20.273Z,16.77
2022-10-05T15:39:10.982Z,16.69
2022-10-05T15:42:00.476Z,16.59
2022-10-05T15:44:37.429Z,16.48
2022-10-05T15:47:38.971Z,16.37
2022-10-05T15:50:22.533Z,16.20
2022-10-05T15:53:25.225Z,16.05
2022-10-05T15:56:05.386Z,15.89
2022-10-05T15:58:42.730Z,15.72
2022-10-05T16:01:32.699Z,15.58
2022-10-05T16:04:25.524Z,15.42
2022-10-05T16:07:21.928Z,15.24
2022-10-05T16:09:57.465Z,15.08
2022-10-05T16:12:43.133Z,14.94
2022-10-05T16:15:26.643Z,14.79
2022-10-05T16:18:15.668Z,14.65
2022-10-05T16:21:11.138Z,14.45
2022-10-05T16:24:09.922Z,14.28
2022-10-05T16:26:57.583Z,14.11
2022-10-05T16:29:49.566Z,13.98
2022-10-05T16:36:28.266Z,13.62
2022-10-05T16:39:01.017Z,13.48
2022-10-05T16:41:58.100Z,13.33
2022-10-05T16:44:45.094Z,13.21
2022-10-05T16:47:36.008Z,13.09
2022-10-05T16:50:23.075Z,12.94
2022-10-05T16:53:00.399Z,12.79
2022-10-05T16:55:42.174Z,12.67
2022-10-05T16:58:42.610Z,12.57
2022-10-05T17:01:48.734Z,12.48
2022-10-05T17:04:16.798Z,12.39
2022-10-05T17:07:13.096Z,12.28
2022-10-05T17:10:03.599Z,12.15
2022-10-05T17:13:11.769Z,12.06
2022-10-05T17:16:04.821Z,11.97
2022-10-05T17:18:51.293Z,11.92
2022-10-05T17:21:35.163Z,11.88
2022-10-05T17:24:12.298Z,11.85
2022-10-05T17:26:56.086Z,11.83
2022-10-05T17:29:42.318Z,11.79
2022-10-05T17:32:30.524Z,11.73
2022-10-05T17:35:01.789Z,11.72
2022-10-05T17:37:35.878Z,11.69
2022-10-05T17:40:29.481Z,11.64
2022-10-05T17:43:01.641Z,11.59
2022-10-05T17:45:29.963Z,11.52
2022-10-05T17:48:00.761Z,11.46
2022-10-05T17:51:04.940Z,11.39
2022-10-05T17:54:02.428Z,11.33
2022-10-05T17:56:50.506Z,11.25
2022-10-05T17:59:37.779Z,11.19
2022-10-05T18:02:40.788Z,11.13
2022-10-05T18:05:18.039Z,11.09
2022-10-05T18:08:07.008Z,11.12
2022-10-05T18:10:41.057Z,11.18
2022-10-05T18:13:31.981Z,11.23
2022-10-05T18:16:00.375Z,11.32
2022-10-05T18:18:38.931Z,11.38
2022-10-05T18:21:18.581Z,11.44
2022-10-05T18:23:52.729Z,11.50
2022-10-05T18:26:49.091Z,11.56
2022-10-05T18:29:57.965Z,11.61
2022-10-05T18:32:47.275Z,11.65
2022-10-05T18:35:24.526Z,11.69
2022-10-05T18:38:04.392Z,11.74
2022-10-05T18:40:38.677Z,11.77
2022-10-05T18:43:29.174Z,11.82
2022-10-05T18:46:10.097Z,11.85
2022-10-05T18:49:10.769Z,11.89
2022-10-05T18:51:55.275Z,11.94
2022-10-05T18:54:45.297Z,12.00
2022-10-05T18:57:31.770Z,12.04
2022-10-05T19:00:20.853Z,12.10
2022-10-05T19:03:31.558Z,12.16
2022-10-05T19:06:13.671Z,12.22
2022-10-05T19:09:15.351Z,12.28
2022-10-05T19:12:01.540Z,12.34
2022-10-05T19:14:35.982Z,12.40
2022-10-05T19:17:07.295Z,12.44
2022-10-05T19:19:50.146Z,12.50
2022-10-05T19:22:28.727Z,12.55
2022-10-05T19:25:22.185Z,12.59
2022-10-05T19:28:11.624Z,12.62
2022-10-05T19:30:45.542Z,12.63
2022-10-05T19:33:39.529Z,12.63
2022-10-05T19:36:32.278Z,12.64
2022-10-05T19:39:22.166Z,12.63
2022-10-05T19:42:13.532Z,12.61
2022-10-05T19:44:54.570Z,12.60
2022-10-05T19:47:30.798Z,12.59
2022-10-05T19:50:03.707Z,12.59
2022-10-05T19:52:45.202Z,12.60
2022-10-05T19:55:20.454Z,12.57
2022-10-05T19:58:00.690Z,12.54
2022-10-05T20:00:35.617Z,12.49
2022-10-05T20:03:27.561Z,12.44
2022-10-05T20:05:58.548Z,12.39
2022-10-05T20:08:36.959Z,12.34
2022-10-05T20:11:15.830Z,12.29
2022-10-05T20:13:45.984Z,12.24
2022-10-05T20:16:36.230Z,12.20
2022-10-05T20:19:44.429Z,12.13
2022-10-05T20:22:35.806Z,12.03
2022-10-05T20:25:29.020Z,11.90
2022-10-05T20:27:57.484Z,11.77
2022-10-05T20:30:31.628Z,11.68
2022-10-05T20:33:01.720Z,11.54
2022-10-05T20:35:33.352Z,11.39
2022-10-05T20:38:01.901Z,11.24
2022-10-05T20:40:30.762Z,11.09
2022-10-05T20:42:59.113Z,10.96
2022-10-05T20:45:27.402Z,10.86
2022-10-05T20:47:55.610Z,10.80
2022-10-05T20:50:23.771Z,10.76
2022-10-05T20:52:52.999Z,10.76
2022-10-05T20:55:21.206Z,10.73
2022-10-05T20:57:49.460Z,10.69
2022-10-05T21:00:17.768Z,10.62
2022-10-05T21:02:47.082Z,10.55
2022-10-05T21:05:18.490Z,10.52
2022-10-05T21:07:46.959Z,10.46
2022-10-05T21:10:15.245Z,10.42
2022-10-05T21:12:43.978Z,10.38
2022-10-05T21:15:12.863Z,10.31
2022-10-05T21:17:41.069Z,10.23
2022-10-05T21:20:11.360Z,10.15
2022-10-05T21:22:39.608Z,10.09
2022-10-05T21:25:09.245Z,10.03
2022-10-05T21:27:37.504Z,9.97
2022-10-05T21:30:06.329Z,9.91
2022-10-05T21:32:34.579Z,9.83
2022-10-05T21:35:02.963Z,9.76
2022-10-05T21:37:31.133Z,9.71
2022-10-05T21:39:59.418Z,9.68
2022-10-05T21:42:27.726Z,9.63
2022-10-05T21:44:55.910Z,9.59
2022-10-05T21:47:24.239Z,9.61
2022-10-05T21:49:52.923Z,9.65
2022-10-05T21:52:22.140Z,9.71
2022-10-05T21:54:50.454Z,9.74
2022-10-05T21:57:32.274Z,9.76
2022-10-05T22:00:00.589Z,9.78
2022-10-05T22:02:28.916Z,9.81
2022-10-05T22:04:58.438Z,9.81
2022-10-05T22:07:26.750Z,9.79
2022-10-05T22:09:55.475Z,9.82
2022-10-05T22:12:24.549Z,9.85
2022-10-05T22:14:52.715Z,9.88
2022-10-05T22:17:28.154Z,9.92
2022-10-05T22:19:57.561Z,9.96
2022-10-05T22:22:27.971Z,9.93
2022-10-05T22:24:56.471Z,9.94
2022-10-05T22:27:27.169Z,9.95
2022-10-05T22:29:58.404Z,9.98
2022-10-05T22:32:26.691Z,9.96
2022-10-05T22:34:54.946Z,9.95
2022-10-05T22:37:23.252Z,9.99
2022-10-05T22:39:51.533Z,10.03
2022-10-05T22:42:19.720Z,10.08
2022-10-05T22:44:48.022Z,10.13
2022-10-05T22:47:16.524Z,10.17
2022-10-05T22:49:44.886Z,10.19
2022-10-05T22:52:13.174Z,10.21
2022-10-05T22:54:41.441Z,10.23
2022-10-05T22:57:09.636Z,10.26
2022-10-05T22:59:37.874Z,10.32
2022-10-05T23:02:06.161Z,10.37
2022-10-05T23:04:34.429Z,10.41
2022-10-05T23:07:03.174Z,10.43
2022-10-05T23:09:31.459Z,10.45
2022-10-05T23:11:59.629Z,10.45
2022-10-05T23:14:30.952Z,10.46
2022-10-05T23:16:59.310Z,10.47
2022-10-05T23:19:28.109Z,10.48
2022-10-05T23:21:56.359Z,10.51
2022-10-05T23:24:24.547Z,10.52
2022-10-05T23:26:52.785Z,10.54
2022-10-05T23:29:20.947Z,10.55
2022-10-05T23:31:49.137Z,10.59
2022-10-05T23:34:17.345Z,10.63
2022-10-05T23:36:45.687Z,10.64
2022-10-05T23:39:14.328Z,10.65
2022-10-05T23:41:44.284Z,10.64
2022-10-05T23:44:12.930Z,10.55
2022-10-05T23:46:41.118Z,10.42
2022-10-05T23:49:09.446Z,10.27
2022-10-05T23:51:37.628Z,10.14
2022-10-05T23:54:05.889Z,10.05
2022-10-05T23:56:34.189Z,9.95
2022-10-05T23:59:03.179Z,9.84
